»·PEaware :: N4415R KWHP-KSBD

N4415R :: KWHP-KSBD

FLIGHT INFORMATION

Flight Status: Arrived
Operator: Privately registered:
United States
More flights under this callsign
Pilot: Frank D. (290)
Aircraft: CESSNA 172 SKYHAWK
(C172)
More flights by this aircraft type
Origin: KWHP Whiteman
United States
Destination: KSBD San Bernardino Intl
United States
More flights between these airports :: More routes between these airports
Route: +
File this flight plan on PilotEdge
Remarks:
Altitude:
(Current/Filed)
0ft
Speed:
(Current/Filed)
0kts
Departed: 10-Nov-12 03:42 PM
Arrived: 10-Nov-12 04:29 PM
Distance/Time
Traveled:
60nm/0:47
Distance/Time
To Go:
Arrived

Flight Plot

Page will automatically refresh every two minutes.

Flight plan parsing failed; only flown route is shown


Map Options




Map Legend


Flown Route
Filed Route
Departure Airport
Arrival Airport
Navaid (VOR, NDB)
Fix

Horizontal Profiles

Position Reports

Time Latitude Longitude Heading Altitude Ground
Speed
10-Nov-12 15:36 34.260013 -118.413232 214 1006ft 3kts
10-Nov-12 15:37 34.257920 -118.411350 137 1006ft 11kts
10-Nov-12 15:38 34.255606 -118.408920 151 1006ft 6kts
10-Nov-12 15:39 34.255479 -118.408898 196 1006ft 0kts
10-Nov-12 15:40 34.255478 -118.408898 196 1006ft 0kts
10-Nov-12 15:41 34.257620 -118.411765 316 1006ft 60kts
10-Nov-12 15:42 34.275134 -118.429544 324 1656ft 85kts
10-Nov-12 15:43 34.278274 -118.409122 143 2123ft 101kts
10-Nov-12 15:44 34.258730 -118.388582 155 2081ft 87kts
10-Nov-12 15:45 34.237087 -118.372741 149 1860ft 91kts
10-Nov-12 15:46 34.217917 -118.353861 145 2337ft 95kts
10-Nov-12 15:47 34.197883 -118.328643 126 2623ft 110kts
10-Nov-12 15:48 34.184545 -118.293996 120 2569ft 113kts
10-Nov-12 15:49 34.170015 -118.261243 124 2724ft 113kts
10-Nov-12 15:50 34.158664 -118.225848 100 3193ft 117kts
10-Nov-12 15:51 34.156148 -118.184922 91 3443ft 125kts
10-Nov-12 15:52 34.153023 -118.143555 93 3735ft 123kts
10-Nov-12 15:53 34.152579 -118.105212 93 4261ft 110kts
10-Nov-12 15:54 34.153018 -118.067715 93 4592ft 116kts
10-Nov-12 15:55 34.153465 -118.030191 96 5014ft 110kts
10-Nov-12 15:56 34.156796 -117.994553 82 5524ft 109kts
10-Nov-12 15:57 34.161234 -117.955104 87 5639ft 120kts
10-Nov-12 15:58 34.162779 -117.912846 95 5537ft 126kts
10-Nov-12 15:59 34.158619 -117.868979 96 5368ft 135kts
10-Nov-12 16:00 34.152003 -117.825160 94 5483ft 128kts
10-Nov-12 16:01 34.146837 -117.781773 91 5510ft 133kts
10-Nov-12 16:02 34.147184 -117.737708 69 5505ft 129kts
10-Nov-12 16:03 34.153211 -117.694429 77 5490ft 131kts
10-Nov-12 16:04 34.156568 -117.650048 75 5512ft 125kts
10-Nov-12 16:05 34.159934 -117.607886 79 5613ft 126kts
10-Nov-12 16:06 34.162066 -117.563918 78 5468ft 133kts
10-Nov-12 16:07 34.163295 -117.521071 80 5524ft 125kts
10-Nov-12 16:08 34.164460 -117.478694 81 5430ft 124kts
10-Nov-12 16:09 34.164809 -117.434571 87 4481ft 135kts
10-Nov-12 16:10 34.162049 -117.390532 95 3585ft 133kts
10-Nov-12 16:11 34.151138 -117.349784 114 2831ft 125kts
10-Nov-12 16:12 34.134618 -117.314061 121 2315ft 113kts
10-Nov-12 16:13 34.116578 -117.280606 123 2201ft 119kts
10-Nov-12 16:14 34.108076 -117.242968 88 2089ft 120kts
10-Nov-12 16:15 34.118217 -117.205103 59 2347ft 116kts
10-Nov-12 16:16 34.138765 -117.191663 329 2938ft 87kts
10-Nov-12 16:17 34.154821 -117.213351 329 3156ft 97kts
10-Nov-12 16:18 34.166382 -117.239910 288 3477ft 90kts
10-Nov-12 16:19 34.170501 -117.270550 279 3718ft 93kts
10-Nov-12 16:20 34.172671 -117.302704 279 3834ft 98kts
10-Nov-12 16:21 34.169953 -117.333666 225 3410ft 111kts
10-Nov-12 16:22 34.141677 -117.323259 126 2609ft 123kts
10-Nov-12 16:23 34.124735 -117.289962 126 2191ft 110kts
10-Nov-12 16:24 34.108765 -117.256274 122 2117ft 123kts
10-Nov-12 16:25 34.111646 -117.218764 72 2336ft 100kts
10-Nov-12 16:26 34.106293 -117.196317 228 1714ft 66kts
10-Nov-12 16:27 34.101107 -117.214856 256 1276ft 53kts
10-Nov-12 16:28 34.099005 -117.224263 286 1160ft 0kts

Navigation Log

Ident Type
Flight plan parsing failed, navigation log unavailable